Time,TemperatureF,DewpointF,PressureIn,WindDirection,WindDirectionDegrees,WindSpeedMPH,WindSpeedGustMPH,Humidity,HourlyPrecipIn,Conditions,Clouds,dailyrainin,SoftwareType,DateUTC
2013-10-15 00:08:00,51.9,49.4,30.13,ENE,74,2.0,13.0,91,0.00,,SCT037,-99.99,VWS V12.07,2013-10-15 04:08:00,
2013-10-15 00:24:00,51.8,49.5,30.13,ESE,105,9.0,11.0,92,0.00,,SCT037,-99.99,VWS V12.07,2013-10-15 04:24:00,
2013-10-15 00:38:00,51.9,49.4,30.13,ESE,104,7.0,11.0,91,0.00,,OVC037,-99.99,VWS V12.07,2013-10-15 04:38:00,
2013-10-15 00:54:00,51.6,49.4,30.12,East,94,9.0,10.0,92,0.00,,OVC032,-99.99,VWS V12.07,2013-10-15 04:54:00,
2013-10-15 01:08:00,51.6,49.7,30.12,ESE,103,9.0,12.0,93,0.00,,OVC032,-99.99,VWS V12.07,2013-10-15 05:08:00,
2013-10-15 01:24:00,51.5,49.5,30.12,ESE,103,5.0,7.0,93,0.00,,OVC032,-99.99,VWS V12.07,2013-10-15 05:24:00,
2013-10-15 01:38:00,51.7,49.5,30.12,East,98,9.0,9.0,92,0.00,,OVC034,-99.99,VWS V12.07,2013-10-15 05:38:00,
2013-10-15 01:54:00,51.4,49.5,30.12,East,101,9.0,9.0,93,0.00,,OVC034,-99.99,VWS V12.07,2013-10-15 05:54:00,
2013-10-15 02:08:00,51.1,49.2,30.11,ESE,114,4.0,10.0,93,0.00,,OVC034,-99.99,VWS V12.07,2013-10-15 06:08:00,
2013-10-15 02:24:00,51.2,49.2,30.11,ESE,104,5.0,6.0,93,0.00,,OVC034,-99.99,VWS V12.07,2013-10-15 06:24:00,
2013-10-15 02:38:00,51.0,49.0,30.11,ESE,103,2.0,7.0,93,0.00, -RA BR,-RA,-99.99,VWS V12.07,2013-10-15 06:38:00,
2013-10-15 02:54:00,50.7,49.0,30.11,East,101,0.0,0.0,94,0.00, -RA BR,-RA,-99.99,VWS V12.07,2013-10-15 06:54:00,
2013-10-15 03:08:00,50.6,48.9,30.11,East,101,0.0,3.0,94,0.00, -RA BR,-RA,-99.99,VWS V12.07,2013-10-15 07:08:00,
2013-10-15 03:24:00,50.5,48.8,30.10,East,101,0.0,0.0,94,0.00, -RA BR,-RA,-99.99,VWS V12.07,2013-10-15 07:24:00,
2013-10-15 03:38:00,50.5,49.4,30.10,ESE,103,0.0,1.0,96,0.00,,OVC023,-99.99,VWS V12.07,2013-10-15 07:38:00,
2013-10-15 03:54:00,50.6,49.8,30.10,SE,132,0.0,1.0,97,0.00,,OVC023,-99.99,VWS V12.07,2013-10-15 07:54:00,
2013-10-15 04:08:00,50.6,49.8,30.10,SE,134,0.0,1.0,97,0.00,,OVC023,-99.99,VWS V12.07,2013-10-15 08:08:00,
2013-10-15 04:24:00,50.7,50.2,30.10,SSE,155,0.0,0.0,98,0.00,,OVC023,-99.99,VWS V12.07,2013-10-15 08:24:00,
2013-10-15 04:38:00,50.6,50.1,30.09,SSE,155,0.0,1.0,98,0.00,,OVC019,-99.99,VWS V12.07,2013-10-15 08:38:00,
2013-10-15 04:54:00,50.2,49.7,30.08,SSE,155,0.0,0.0,98,0.00,,OVC019,-99.99,VWS V12.07,2013-10-15 08:54:00,
2013-10-15 05:08:00,49.6,48.8,30.08,SSE,155,0.0,0.0,97,0.00,,OVC019,-99.99,VWS V12.07,2013-10-15 09:08:00,
2013-10-15 05:24:00,49.4,48.9,30.08,SSE,155,0.0,0.0,98,0.00,,OVC019,-99.99,VWS V12.07,2013-10-15 09:24:00,
2013-10-15 05:38:00,49.4,48.9,30.08,SSE,155,0.0,0.0,98,0.00,,OVC021,-99.99,VWS V12.07,2013-10-15 09:38:00,
2013-10-15 05:54:00,49.3,48.8,30.08,SSE,155,0.0,0.0,98,0.00,,OVC021,-99.99,VWS V12.07,2013-10-15 09:54:00,
2013-10-15 06:08:00,49.4,48.9,30.09,SSE,155,0.0,2.0,98,0.00,,OVC021,-99.99,VWS V12.07,2013-10-15 10:08:00,
2013-10-15 06:24:00,49.3,48.8,30.08,SSE,155,0.0,0.0,98,0.00,,OVC021,-99.99,VWS V12.07,2013-10-15 10:24:00,
2013-10-15 06:38:00,49.4,48.9,30.09,SSE,159,0.0,3.0,98,0.00,,OVC021,-99.99,VWS V12.07,2013-10-15 10:38:00,
2013-10-15 06:54:00,49.4,48.9,30.09,SSE,159,0.0,1.0,98,0.00,,OVC021,-99.99,VWS V12.07,2013-10-15 10:54:00,
2013-10-15 07:08:00,48.8,48.3,30.09,East,101,0.0,5.0,98,0.00,,OVC021,-99.99,VWS V12.07,2013-10-15 11:08:00,
2013-10-15 07:24:00,48.9,48.4,30.09,East,101,1.0,2.0,98,0.00,,OVC021,-99.99,VWS V12.07,2013-10-15 11:24:00,
2013-10-15 07:38:00,48.7,48.2,30.09,East,100,4.0,5.0,98,0.00,,OVC019,-99.99,VWS V12.07,2013-10-15 11:38:00,
2013-10-15 07:54:00,50.0,49.2,30.09,ESE,104,0.0,0.0,97,0.00,,OVC019,-99.99,VWS V12.07,2013-10-15 11:54:00,
2013-10-15 08:08:00,50.0,48.6,30.10,ESE,106,0.0,1.0,95,0.00,,OVC019,-99.99,VWS V12.07,2013-10-15 12:08:00,
2013-10-15 08:24:00,49.1,48.3,30.11,South,181,5.0,5.0,97,0.00,,OVC019,-99.99,VWS V12.07,2013-10-15 12:24:00,
2013-10-15 08:38:00,49.1,48.6,30.10,SE,136,3.0,8.0,98,0.00,,OVC019,-99.99,VWS V12.07,2013-10-15 12:38:00,
2013-10-15 08:54:00,50.6,50.3,30.11,SE,144,0.0,1.0,99,0.00,,OVC019,-99.99,VWS V12.07,2013-10-15 12:54:00,
2013-10-15 09:08:00,50.5,50.0,30.10,SE,142,0.0,2.0,98,0.00,,OVC019,-99.99,VWS V12.07,2013-10-15 13:08:00,
2013-10-15 09:24:00,51.9,51.6,30.10,SE,142,0.0,1.0,99,0.00,,OVC019,-99.99,VWS V12.07,2013-10-15 13:24:00,
2013-10-15 09:38:00,54.4,52.7,30.10,ESE,115,0.0,4.0,94,0.00,,OVC019,-99.99,VWS V12.07,2013-10-15 13:38:00,
2013-10-15 09:54:00,56.1,53.2,30.10,ESE,115,0.0,0.0,90,0.00,,OVC019,-99.99,VWS V12.07,2013-10-15 13:54:00,
2013-10-15 10:08:00,56.5,53.0,30.09,ESE,115,0.0,1.0,88,0.00,,OVC019,-99.99,VWS V12.07,2013-10-15 14:08:00,
2013-10-15 10:24:00,55.9,52.4,30.09,ENE,76,0.0,0.0,88,0.00,,OVC019,-99.99,VWS V12.07,2013-10-15 14:24:00,
2013-10-15 10:38:00,55.8,52.6,30.09,South,184,0.0,4.0,89,0.00,,OVC019,-99.99,VWS V12.07,2013-10-15 14:38:00,
2013-10-15 10:54:00,55.1,52.2,30.09,SSW,192,3.0,4.0,90,0.00,,OVC019,-99.99,VWS V12.07,2013-10-15 14:54:00,
2013-10-15 11:08:00,55.7,52.8,30.09,SSW,209,0.0,6.0,90,0.00,,OVC019,-99.99,VWS V12.07,2013-10-15 15:08:00,
2013-10-15 11:24:00,57.1,54.2,30.08,West,267,0.0,1.0,90,0.00,,OVC019,-99.99,VWS V12.07,2013-10-15 15:24:00,
2013-10-15 11:38:00,57.1,53.9,30.09,SW,225,3.0,6.0,89,0.00,,OVC015,-99.99,VWS V12.07,2013-10-15 15:38:00,
2013-10-15 11:54:00,56.6,54.0,30.09,WSW,237,3.0,4.0,91,0.00,,OVC015,-99.99,VWS V12.07,2013-10-15 15:54:00,
2013-10-15 12:08:00,56.7,54.4,30.10,SW,233,0.0,7.0,92,0.00,,OVC015,-99.99,VWS V12.07,2013-10-15 16:08:00,
2013-10-15 12:24:00,57.9,54.7,30.08,ENE,65,0.0,0.0,89,0.00,,OVC015,-99.99,VWS V12.07,2013-10-15 16:24:00,
2013-10-15 12:38:00,59.1,55.2,30.08,NNW,347,0.0,3.0,87,0.00,,OVC015,-99.99,VWS V12.07,2013-10-15 16:38:00,
2013-10-15 12:54:00,60.0,55.5,30.08,NNW,340,0.0,2.0,85,0.00,,OVC015,-99.99,VWS V12.07,2013-10-15 16:54:00,
2013-10-15 13:08:00,59.6,55.1,30.07,NNW,337,0.0,3.0,85,0.00,,OVC015,-99.99,VWS V12.07,2013-10-15 17:08:00,
2013-10-15 13:24:00,59.7,55.5,30.07,NNW,337,0.0,1.0,86,0.00,,OVC015,-99.99,VWS V12.07,2013-10-15 17:24:00,
2013-10-15 13:38:00,59.7,54.9,30.06,NNW,336,0.0,2.0,84,0.00,,OVC015,-99.99,VWS V12.07,2013-10-15 17:38:00,
2013-10-15 13:54:00,61.3,55.4,30.05,NW,304,4.0,5.0,81,0.00,,OVC015,-99.99,VWS V12.07,2013-10-15 17:54:00,
2013-10-15 14:08:00,62.1,55.9,30.05,NW,304,1.0,6.0,80,0.00,,OVC015,-99.99,VWS V12.07,2013-10-15 18:08:00,
2013-10-15 14:24:00,62.5,55.9,30.05,WNW,303,0.0,3.0,79,0.00,,OVC015,-99.99,VWS V12.07,2013-10-15 18:24:00,
2013-10-15 14:38:00,62.5,56.2,30.04,NW,309,0.0,5.0,80,0.00,,OVC017,-99.99,VWS V12.07,2013-10-15 18:38:00,
2013-10-15 14:54:00,63.2,55.9,30.03,NW,315,1.0,3.0,77,0.00,,OVC017,-99.99,VWS V12.07,2013-10-15 18:54:00,
2013-10-15 15:08:00,63.8,56.8,30.02,NW,309,0.0,3.0,78,0.00,,OVC017,-99.99,VWS V12.07,2013-10-15 19:08:00,
2013-10-15 15:24:00,62.9,56.3,30.02,NW,312,0.0,1.0,79,0.00,,OVC017,-99.99,VWS V12.07,2013-10-15 19:24:00,
2013-10-15 15:38:00,62.7,56.8,30.02,NW,313,1.0,2.0,81,0.00,,SCT019,-99.99,VWS V12.07,2013-10-15 19:38:00,
2013-10-15 15:54:00,62.3,56.4,30.02,NW,307,0.0,0.0,81,0.00,,SCT019,-99.99,VWS V12.07,2013-10-15 19:54:00,
2013-10-15 16:08:00,61.3,55.8,30.01,NW,311,0.0,3.0,82,0.00,,SCT019,-99.99,VWS V12.07,2013-10-15 20:08:00,
2013-10-15 16:24:00,60.6,55.8,30.01,NW,311,0.0,0.0,84,0.00,,SCT019,-99.99,VWS V12.07,2013-10-15 20:24:00,
2013-10-15 16:38:00,60.7,55.8,30.01,NW,311,0.0,2.0,84,0.00,,FEW019,-99.99,VWS V12.07,2013-10-15 20:38:00,
2013-10-15 16:54:00,60.4,55.9,30.01,NW,311,0.0,1.0,85,0.00,,FEW019,-99.99,VWS V12.07,2013-10-15 20:54:00,
2013-10-15 17:08:00,59.7,55.2,30.01,NW,304,0.0,3.0,85,0.00,,FEW019,-99.99,VWS V12.07,2013-10-15 21:08:00,
2013-10-15 17:24:00,58.9,55.0,30.02,NW,304,0.0,0.0,87,0.00,,FEW019,-99.99,VWS V12.07,2013-10-15 21:24:00,
2013-10-15 17:38:00,58.7,55.5,30.01,SW,217,3.0,4.0,89,0.00,,CLR,-99.99,VWS V12.07,2013-10-15 21:38:00,
2013-10-15 17:54:00,58.6,55.7,30.02,SSW,206,0.0,1.0,90,0.00,,CLR,-99.99,VWS V12.07,2013-10-15 21:54:00,
2013-10-15 18:08:00,57.7,55.4,30.01,SSW,193,0.0,4.0,92,0.00,,CLR,-99.99,VWS V12.07,2013-10-15 22:08:00,
2013-10-15 18:24:00,57.1,55.1,30.01,South,191,0.0,1.0,93,0.00,,CLR,-99.99,VWS V12.07,2013-10-15 22:24:00,
2013-10-15 18:38:00,56.7,54.7,30.01,South,187,0.0,2.0,93,0.00,,CLR,-99.99,VWS V12.07,2013-10-15 22:38:00,
2013-10-15 18:54:00,56.6,54.9,30.01,South,187,0.0,0.0,94,0.00,,CLR,-99.99,VWS V12.07,2013-10-15 22:54:00,
2013-10-15 19:08:00,56.7,55.0,30.01,South,186,0.0,1.0,94,0.00,,CLR,-99.99,VWS V12.07,2013-10-15 23:08:00,
2013-10-15 19:24:00,56.2,54.8,30.01,South,186,0.0,0.0,95,0.00,,CLR,-99.99,VWS V12.07,2013-10-15 23:24:00,
2013-10-15 19:38:00,55.8,54.4,30.01,South,186,0.0,1.0,95,0.00,,CLR,-99.99,VWS V12.07,2013-10-15 23:38:00,
2013-10-15 19:54:00,56.0,54.6,30.02,SSE,161,0.0,0.0,95,0.00,,CLR,-99.99,VWS V12.07,2013-10-15 23:54:00,
2013-10-15 20:08:00,55.7,54.0,30.02,SSE,161,0.0,1.0,94,0.00,,CLR,-99.99,VWS V12.07,2013-10-16 00:08:00,
2013-10-15 20:24:00,55.5,54.1,30.02,SSE,161,0.0,0.0,95,0.00,,CLR,-99.99,VWS V12.07,2013-10-16 00:24:00,
2013-10-15 20:38:00,55.3,53.9,30.02,SSE,161,0.0,0.0,95,0.00,,CLR,-99.99,VWS V12.07,2013-10-16 00:38:00,
2013-10-15 20:54:00,55.2,54.1,30.02,SSE,162,0.0,1.0,96,0.00,,CLR,-99.99,VWS V12.07,2013-10-16 00:54:00,
2013-10-15 21:08:00,55.1,54.3,30.02,SSE,162,0.0,1.0,97,0.00,,CLR,-99.99,VWS V12.07,2013-10-16 01:08:00,
2013-10-15 21:24:00,55.0,53.9,30.01,SSE,161,1.0,1.0,96,0.00,,CLR,-99.99,VWS V12.07,2013-10-16 01:24:00,
2013-10-15 21:38:00,54.8,52.8,30.01,SSE,161,0.0,2.0,93,0.00,,CLR,-99.99,VWS V12.07,2013-10-16 01:38:00,
2013-10-15 21:54:00,54.8,52.5,30.02,SSE,161,0.0,0.0,92,0.00,,CLR,-99.99,VWS V12.07,2013-10-16 01:54:00,
2013-10-15 22:08:00,54.5,53.1,30.02,SSE,161,0.0,1.0,95,0.00,,CLR,-99.99,VWS V12.07,2013-10-16 02:08:00,
2013-10-15 22:24:00,54.2,53.4,30.02,SSE,161,0.0,1.0,97,0.00,,CLR,-99.99,VWS V12.07,2013-10-16 02:24:00,
2013-10-15 22:38:00,53.9,53.1,30.02,SSE,161,0.0,1.0,97,0.00,,CLR,-99.99,VWS V12.07,2013-10-16 02:38:00,
2013-10-15 22:54:00,53.9,53.1,30.03,SSE,161,0.0,1.0,97,0.00,,CLR,-99.99,VWS V12.07,2013-10-16 02:54:00,
2013-10-15 23:08:00,53.7,52.9,30.04,SSE,161,0.0,1.0,97,0.00,,CLR,-99.99,VWS V12.07,2013-10-16 03:08:00,
2013-10-15 23:24:00,53.2,52.4,30.03,SSE,159,0.0,2.0,97,0.00,,CLR,-99.99,VWS V12.07,2013-10-16 03:24:00,
2013-10-15 23:38:00,53.0,46.3,30.02,ESE,113,4.0,4.0,78,0.00,,CLR,-99.99,VWS V12.07,2013-10-16 03:38:00,
2013-10-15 23:54:00,53.7,43.8,30.02,ESE,111,0.0,0.0,69,0.00,,CLR,-99.99,VWS V12.07,2013-10-16 03:54:00,